createdAt,value
2023-03-03T00:02:22.212Z,12.27
2023-03-03T00:04:54.897Z,12.33
2023-03-03T00:07:25.138Z,12.37
2023-03-03T00:09:55.341Z,12.60
2023-03-03T00:12:28.568Z,11.83
2023-03-03T00:14:58.791Z,12.27
2023-03-03T00:17:30.530Z,12.17
2023-03-03T00:20:05.856Z,12.33
2023-03-03T00:22:40.380Z,11.77
2023-03-03T00:25:31.081Z,11.63
2023-03-03T00:28:10.624Z,11.40
2023-03-03T00:30:40.839Z,11.60
2023-03-03T00:33:24.585Z,11.47
2023-03-03T00:35:57.629Z,11.43
2023-03-03T00:38:27.897Z,12.57
2023-03-03T00:40:58.065Z,12.23
2023-03-03T00:43:31.351Z,11.97
2023-03-03T00:46:02.092Z,11.77
2023-03-03T00:48:34.293Z,10.60
2023-03-03T00:51:21.911Z,10.30
2023-03-03T00:53:52.628Z,11.60
2023-03-03T00:56:22.778Z,10.80
2023-03-03T00:58:53.149Z,11.73
2023-03-03T01:01:25.869Z,12.40
2023-03-03T01:03:57.449Z,11.70
2023-03-03T01:06:30.928Z,11.23
2023-03-03T01:09:01.200Z,12.00
2023-03-03T01:11:31.366Z,11.93
2023-03-03T01:14:01.698Z,10.23
2023-03-03T01:16:32.782Z,12.43
2023-03-03T01:19:03.161Z,12.07
2023-03-03T01:21:35.640Z,11.40
2023-03-03T01:24:06.117Z,11.23
2023-03-03T01:26:36.029Z,10.97
2023-03-03T01:29:05.937Z,12.00
2023-03-03T01:31:36.508Z,11.00
2023-03-03T01:34:07.291Z,11.47
2023-03-03T01:36:39.835Z,12.67
2023-03-03T01:39:10.230Z,12.03
2023-03-03T01:41:40.445Z,10.50
2023-03-03T01:44:11.062Z,9.93
2023-03-03T01:46:50.837Z,11.10
2023-03-03T01:49:24.302Z,11.73
2023-03-03T01:52:00.409Z,9.90
2023-03-03T01:54:36.112Z,10.33
2023-03-03T01:57:09.688Z,11.10
2023-03-03T01:59:43.290Z,11.32
2023-03-03T02:02:13.798Z,12.32
2023-03-03T02:04:44.556Z,12.50
2023-03-03T02:07:18.877Z,11.80
2023-03-03T02:12:38.496Z,10.90
2023-03-03T02:15:20.054Z,10.27
2023-03-03T02:17:52.361Z,11.93
2023-03-03T02:20:35.104Z,10.27
2023-03-03T02:23:12.774Z,10.90
2023-03-03T02:25:50.699Z,10.77
2023-03-03T02:28:23.915Z,10.27
2023-03-03T02:30:54.400Z,10.47
2023-03-03T02:33:24.849Z,9.30
2023-03-03T02:35:55.851Z,10.90
2023-03-03T02:38:29.784Z,11.07
2023-03-03T02:41:06.115Z,10.65
2023-03-03T02:43:42.071Z,11.53
2023-03-03T02:46:13.768Z,10.80
2023-03-03T02:48:44.021Z,10.33
2023-03-03T02:51:14.260Z,8.50
2023-03-03T02:53:44.684Z,11.40
2023-03-03T02:56:15.582Z,10.50
2023-03-03T02:58:48.514Z,10.03
2023-03-03T03:01:18.980Z,9.67
2023-03-03T03:03:49.568Z,11.20
2023-03-03T03:06:24.226Z,11.23
2023-03-03T03:08:55.601Z,9.97
2023-03-03T03:11:26.034Z,10.93
2023-03-03T03:13:58.768Z,10.70
2023-03-03T03:16:29.231Z,10.07
2023-03-03T03:18:59.533Z,11.47
2023-03-03T03:21:30.920Z,10.53
2023-03-03T03:24:02.221Z,11.10
2023-03-03T03:26:33.162Z,11.77
2023-03-03T03:29:06.275Z,10.20
2023-03-03T03:31:36.615Z,9.73
2023-03-03T03:34:07.161Z,11.30
2023-03-03T03:36:39.972Z,10.27
2023-03-03T03:39:10.993Z,9.73
2023-03-03T03:41:45.331Z,10.32
2023-03-03T03:44:18.231Z,9.53
2023-03-03T03:46:48.609Z,10.07
2023-03-03T03:49:20.925Z,10.87
2023-03-03T03:51:52.626Z,11.90
2023-03-03T03:54:26.865Z,6.93
2023-03-03T03:56:57.510Z,10.13
2023-03-03T03:59:30.568Z,11.47
2023-03-03T04:02:01.062Z,11.60
2023-03-03T04:04:31.476Z,10.50
2023-03-03T04:07:02.262Z,11.27
2023-03-03T04:09:33.505Z,11.20
2023-03-03T04:12:04.331Z,11.07
2023-03-03T04:14:37.435Z,10.03
2023-03-03T04:17:08.207Z,12.67
2023-03-03T04:19:38.478Z,10.50
2023-03-03T04:22:09.583Z,12.03
2023-03-03T04:24:39.947Z,9.87
2023-03-03T04:27:11.747Z,9.63
2023-03-03T04:29:44.703Z,8.30
2023-03-03T04:32:15.595Z,7.57
2023-03-03T04:34:48.931Z,10.57
2023-03-03T04:37:21.326Z,9.40
2023-03-03T04:39:51.627Z,10.73
2023-03-03T04:42:21.907Z,10.20
2023-03-03T04:44:54.996Z,10.30
2023-03-03T04:47:25.988Z,12.15
2023-03-03T04:49:56.632Z,10.50
2023-03-03T04:52:27.262Z,10.73
2023-03-03T04:54:57.541Z,11.10
2023-03-03T04:57:28.362Z,10.67
2023-03-03T05:00:01.484Z,11.23
2023-03-03T05:02:31.858Z,10.57
2023-03-03T05:05:02.291Z,11.23
2023-03-03T05:07:32.565Z,12.17
2023-03-03T05:10:02.765Z,11.27
2023-03-03T05:12:33.012Z,12.10
2023-03-03T05:15:05.836Z,11.17
2023-03-03T05:17:36.054Z,11.63
2023-03-03T05:20:10.770Z,12.07
2023-03-03T05:22:40.988Z,13.57
2023-03-03T05:25:13.359Z,12.83
2023-03-03T05:27:43.887Z,11.47
2023-03-03T05:30:17.239Z,12.90
2023-03-03T05:32:47.761Z,15.50
2023-03-03T05:35:18.054Z,15.37
2023-03-03T05:37:49.840Z,14.60
2023-03-03T05:40:20.454Z,16.07
2023-03-03T05:42:50.756Z,14.23
2023-03-03T05:45:24.452Z,13.13
2023-03-03T05:47:54.745Z,12.45
2023-03-03T05:50:25.805Z,13.47
2023-03-03T05:52:56.955Z,13.53
2023-03-03T05:55:27.250Z,11.60
2023-03-03T05:57:58.206Z,10.40
2023-03-03T06:00:30.777Z,12.87
2023-03-03T06:03:01.084Z,11.90
2023-03-03T06:05:31.298Z,13.13
2023-03-03T06:08:01.591Z,13.07
2023-03-03T06:10:31.775Z,13.80
2023-03-03T06:13:06.236Z,13.82
2023-03-03T06:15:39.335Z,13.10
2023-03-03T06:18:09.650Z,13.03
2023-03-03T06:20:40.056Z,14.57
2023-03-03T06:23:10.288Z,15.10
2023-03-03T06:25:42.111Z,15.73
2023-03-03T06:28:13.504Z,15.63
2023-03-03T06:30:46.021Z,13.97
2023-03-03T06:33:16.232Z,14.87
2023-03-03T06:35:46.430Z,14.97
2023-03-03T06:38:16.635Z,15.70
2023-03-03T06:40:46.852Z,14.73
2023-03-03T06:43:17.440Z,13.13
2023-03-03T06:45:51.045Z,14.93
2023-03-03T06:48:21.445Z,15.10
2023-03-03T06:50:51.773Z,13.40
2023-03-03T06:53:22.291Z,12.80
2023-03-03T06:55:52.572Z,12.70
2023-03-03T06:58:24.343Z,13.63
2023-03-03T07:00:59.917Z,12.43
2023-03-03T07:03:35.498Z,12.00
2023-03-03T07:06:17.460Z,13.43
2023-03-03T07:08:47.859Z,12.37
2023-03-03T07:11:20.860Z,11.70
2023-03-03T07:13:52.806Z,17.33
2023-03-03T07:16:29.777Z,20.33
2023-03-03T07:19:03.639Z,18.67
2023-03-03T07:21:36.402Z,17.65
2023-03-03T07:24:22.006Z,19.80
2023-03-03T07:26:52.470Z,20.50
2023-03-03T07:29:27.057Z,18.27
2023-03-03T07:32:00.880Z,17.43
2023-03-03T07:34:41.004Z,16.45
2023-03-03T07:37:20.194Z,17.17
2023-03-03T07:39:50.971Z,16.17
2023-03-03T07:42:30.604Z,17.60
2023-03-03T07:45:27.624Z,19.10
2023-03-03T07:48:11.049Z,15.97
2023-03-03T07:50:41.448Z,17.57
2023-03-03T07:53:18.004Z,17.77
2023-03-03T07:55:48.471Z,17.87
2023-03-03T07:58:25.253Z,18.73
2023-03-03T08:01:31.023Z,19.33
2023-03-03T08:04:04.512Z,18.23
2023-03-03T08:06:41.950Z,18.80
2023-03-03T08:09:47.892Z,16.77
2023-03-03T08:12:31.689Z,19.00
2023-03-03T08:15:21.746Z,18.83
2023-03-03T08:17:52.297Z,18.97
2023-03-03T08:20:52.585Z,20.33
2023-03-03T08:23:23.314Z,18.40
2023-03-03T08:25:54.553Z,17.10
2023-03-03T08:28:25.093Z,16.83
2023-03-03T08:31:08.848Z,18.07
2023-03-03T08:33:45.443Z,16.23
2023-03-03T08:36:18.032Z,17.50
2023-03-03T08:38:48.267Z,17.17
2023-03-03T08:41:18.454Z,16.23
2023-03-03T08:43:48.928Z,16.10
2023-03-03T08:46:19.365Z,18.83
2023-03-03T08:48:49.729Z,16.17
2023-03-03T08:51:22.657Z,17.47
2023-03-03T08:53:52.829Z,17.07
2023-03-03T08:56:23.022Z,18.03
2023-03-03T08:59:02.149Z,15.60
2023-03-03T09:01:33.130Z,15.50
2023-03-03T09:04:03.605Z,16.07
2023-03-03T09:06:36.381Z,14.43
2023-03-03T09:09:06.674Z,17.43
2023-03-03T09:11:36.924Z,15.05
2023-03-03T09:14:13.873Z,14.77
2023-03-03T09:16:54.107Z,14.83
2023-03-03T09:19:27.556Z,13.75
2023-03-03T09:22:14.606Z,14.77
2023-03-03T09:24:45.593Z,13.93
2023-03-03T09:27:20.275Z,13.02
2023-03-03T09:29:50.651Z,14.77
2023-03-03T09:32:32.995Z,14.02
2023-03-03T09:35:03.437Z,16.15
2023-03-03T09:37:40.591Z,14.70
2023-03-03T09:40:35.460Z,15.43
2023-03-03T09:43:12.383Z,12.95
2023-03-03T09:46:02.022Z,14.30
2023-03-03T09:48:47.238Z,14.57
2023-03-03T09:51:36.109Z,12.68
2023-03-03T09:54:22.186Z,13.77
2023-03-03T09:56:59.173Z,13.80
2023-03-03T09:59:43.233Z,13.98
2023-03-03T10:02:32.978Z,13.60
2023-03-03T10:05:30.583Z,12.00
2023-03-03T10:08:24.679Z,12.18
2023-03-03T10:11:11.162Z,11.45
2023-03-03T10:13:46.775Z,12.20
2023-03-03T10:17:00.361Z,12.25
2023-03-03T10:19:36.817Z,11.45
2023-03-03T10:22:10.615Z,10.95
2023-03-03T10:24:47.879Z,12.10
2023-03-03T10:27:34.804Z,12.10
2023-03-03T10:30:10.848Z,11.10
2023-03-03T10:32:52.454Z,12.02
2023-03-03T10:35:35.844Z,11.10
2023-03-03T10:38:35.542Z,11.90
2023-03-03T10:41:18.990Z,11.85
2023-03-03T10:44:10.339Z,11.00
2023-03-03T10:47:03.877Z,11.60
2023-03-03T10:49:45.952Z,10.80
2023-03-03T10:52:30.511Z,11.13
2023-03-03T10:55:32.981Z,11.27
2023-03-03T10:58:26.213Z,11.43
2023-03-03T11:01:06.959Z,9.80
2023-03-03T11:03:58.873Z,11.32
2023-03-03T11:06:37.039Z,11.68
2023-03-03T11:09:16.558Z,10.68
2023-03-03T11:11:55.615Z,10.35
2023-03-03T11:14:27.869Z,11.55
2023-03-03T11:17:07.726Z,10.15
2023-03-03T11:19:52.729Z,10.50
2023-03-03T11:22:37.496Z,10.43
2023-03-03T11:25:17.503Z,10.27
2023-03-03T11:28:20.245Z,10.40
2023-03-03T11:31:05.410Z,10.93
2023-03-03T11:33:42.015Z,10.05
2023-03-03T11:36:16.854Z,9.13
2023-03-03T11:38:59.443Z,9.82
2023-03-03T11:41:34.208Z,11.13
2023-03-03T11:44:13.911Z,10.75
2023-03-03T11:46:46.212Z,10.52
2023-03-03T11:49:23.019Z,11.40
2023-03-03T11:52:04.541Z,11.30
2023-03-03T11:54:41.678Z,11.82
2023-03-03T11:57:21.054Z,11.35
2023-03-03T11:59:59.251Z,10.70
2023-03-03T12:02:53.806Z,10.10
2023-03-03T12:05:41.234Z,10.85
2023-03-03T12:08:23.565Z,11.10
2023-03-03T12:11:02.740Z,9.75
2023-03-03T12:13:42.355Z,9.93
2023-03-03T12:16:18.878Z,11.40
2023-03-03T12:18:55.921Z,9.82
2023-03-03T12:21:35.911Z,10.48
2023-03-03T12:24:25.577Z,10.40
2023-03-03T12:27:05.281Z,10.70
2023-03-03T12:29:51.250Z,10.50
2023-03-03T12:32:35.293Z,11.27
2023-03-03T12:35:12.242Z,11.02
2023-03-03T12:37:57.490Z,9.80
2023-03-03T12:40:32.146Z,10.38
2023-03-03T12:43:23.298Z,10.25
2023-03-03T12:46:02.372Z,10.15
2023-03-03T12:48:41.544Z,10.82
2023-03-03T12:51:32.160Z,10.55
2023-03-03T12:54:26.236Z,10.32
2023-03-03T12:56:58.150Z,10.70
2023-03-03T12:59:41.366Z,10.10
2023-03-03T13:02:41.021Z,10.00
2023-03-03T13:05:23.207Z,10.30
2023-03-03T13:08:06.419Z,9.73
2023-03-03T13:10:46.245Z,9.55
2023-03-03T13:13:20.854Z,10.38
2023-03-03T13:16:05.451Z,8.48
2023-03-03T13:18:55.376Z,9.43
2023-03-03T13:21:29.612Z,9.82
2023-03-03T13:24:10.648Z,9.25
2023-03-03T13:26:47.592Z,9.55
2023-03-03T13:29:23.146Z,9.13
2023-03-03T13:31:58.008Z,9.27
2023-03-03T13:34:39.961Z,10.43
2023-03-03T13:37:16.994Z,9.25
2023-03-03T13:39:57.834Z,9.73
2023-03-03T13:42:35.582Z,9.75
2023-03-03T13:45:15.341Z,8.75
2023-03-03T13:47:51.646Z,9.00
2023-03-03T13:50:28.948Z,9.90
2023-03-03T13:53:19.518Z,8.65
2023-03-03T13:55:56.492Z,8.70
2023-03-03T13:58:38.421Z,8.20
2023-03-03T14:01:17.452Z,8.30
2023-03-03T14:04:02.409Z,8.35
2023-03-03T14:06:33.532Z,7.22
2023-03-03T14:09:21.261Z,7.90
2023-03-03T14:11:59.193Z,7.50
2023-03-03T14:14:49.802Z,8.18
2023-03-03T14:17:29.592Z,8.85
2023-03-03T14:20:13.687Z,7.90
2023-03-03T14:22:49.169Z,8.00
2023-03-03T14:25:19.489Z,9.30
2023-03-03T14:28:04.330Z,7.22
2023-03-03T14:30:41.010Z,9.20
2023-03-03T14:33:27.082Z,8.48
2023-03-03T14:36:16.234Z,8.77
2023-03-03T14:38:51.907Z,8.32
2023-03-03T14:41:25.180Z,8.98
2023-03-03T14:44:02.910Z,8.93
2023-03-03T14:46:41.768Z,7.22
2023-03-03T14:49:19.570Z,16.10
2023-03-03T14:51:51.561Z,8.73
2023-03-03T14:54:29.873Z,7.80
2023-03-03T14:57:10.804Z,9.07
2023-03-03T14:59:42.032Z,7.50
2023-03-03T15:02:32.563Z,7.25
2023-03-03T15:05:25.316Z,8.02
2023-03-03T15:07:57.917Z,6.82
2023-03-03T15:10:37.339Z,7.40
2023-03-03T15:13:30.950Z,7.47
2023-03-03T15:16:13.916Z,7.15
2023-03-03T15:19:22.534Z,7.18
2023-03-03T15:21:59.881Z,7.97
2023-03-03T15:24:37.065Z,7.43
2023-03-03T15:27:13.608Z,6.90
2023-03-03T15:29:53.788Z,7.82
2023-03-03T15:32:31.149Z,6.63
2023-03-03T15:35:13.701Z,7.10
2023-03-03T15:37:50.482Z,7.40
2023-03-03T15:40:27.342Z,7.07
2023-03-03T15:43:05.748Z,7.45
2023-03-03T15:45:42.275Z,7.03
2023-03-03T15:48:31.055Z,7.03
2023-03-03T15:51:14.471Z,6.35
2023-03-03T15:54:09.314Z,7.28
2023-03-03T15:59:46.419Z,6.78
2023-03-03T16:02:21.927Z,6.75
2023-03-03T16:05:00.451Z,17.88
2023-03-03T16:07:48.611Z,13.13
2023-03-03T16:10:25.151Z,8.30
2023-03-03T16:13:05.676Z,6.53
2023-03-03T16:15:57.075Z,7.00
2023-03-03T16:18:35.940Z,6.82
2023-03-03T16:21:31.920Z,6.80
2023-03-03T16:24:18.737Z,6.82
2023-03-03T16:26:57.180Z,7.13
2023-03-03T16:29:38.259Z,6.15
2023-03-03T16:32:14.453Z,5.47
2023-03-03T16:34:57.664Z,6.50
2023-03-03T16:37:34.750Z,5.60
2023-03-03T16:40:17.370Z,5.57
2023-03-03T16:42:47.634Z,6.03
2023-03-03T16:45:27.124Z,6.30
2023-03-03T16:48:11.326Z,6.75
2023-03-03T16:50:47.665Z,4.97
2023-03-03T16:53:27.553Z,5.47
2023-03-03T16:56:07.996Z,5.55
2023-03-03T16:58:50.763Z,5.80
2023-03-03T17:01:30.698Z,5.57
2023-03-03T17:04:03.795Z,5.43
2023-03-03T17:06:46.212Z,6.10
2023-03-03T17:09:45.038Z,5.30
2023-03-03T17:12:42.143Z,5.32
2023-03-03T17:15:27.022Z,5.45
2023-03-03T17:20:39.733Z,5.93
2023-03-03T17:23:34.007Z,5.25
2023-03-03T17:26:26.803Z,6.60
2023-03-03T17:29:11.600Z,6.22
2023-03-03T17:34:30.412Z,6.30
2023-03-03T17:37:14.936Z,5.05
2023-03-03T17:40:15.242Z,6.07
2023-03-03T17:42:52.307Z,5.28
2023-03-03T17:45:30.845Z,4.43
2023-03-03T17:48:20.283Z,5.50
2023-03-03T17:51:38.292Z,4.68
2023-03-03T17:54:21.948Z,6.00
2023-03-03T17:57:00.661Z,6.30
2023-03-03T17:59:58.076Z,5.72
2023-03-03T18:02:45.936Z,6.60
2023-03-03T18:05:41.829Z,6.20
2023-03-03T18:08:27.353Z,5.53
2023-03-03T18:11:25.109Z,5.18
2023-03-03T18:14:22.481Z,5.53
2023-03-03T18:17:21.517Z,5.80
2023-03-03T18:20:11.330Z,5.80
2023-03-03T18:22:46.209Z,5.30
2023-03-03T18:25:18.437Z,5.05
2023-03-03T18:27:49.034Z,6.10
2023-03-03T18:30:27.642Z,6.88
2023-03-03T18:33:16.196Z,6.05
2023-03-03T18:35:51.191Z,7.03
2023-03-03T18:38:35.864Z,7.18
2023-03-03T18:41:08.054Z,5.45
2023-03-03T18:43:56.896Z,6.40
2023-03-03T18:46:50.247Z,5.57
2023-03-03T18:49:20.961Z,5.30
2023-03-03T18:52:18.997Z,6.90
2023-03-03T18:55:19.946Z,5.40
2023-03-03T18:58:29.959Z,6.18
2023-03-03T19:01:02.552Z,7.72
2023-03-03T19:03:37.911Z,7.65
2023-03-03T19:06:10.319Z,7.10
2023-03-03T19:08:57.975Z,7.30
2023-03-03T19:11:40.906Z,9.02
2023-03-03T19:14:35.220Z,8.93
2023-03-03T19:17:34.998Z,7.97
2023-03-03T19:20:12.382Z,9.13
2023-03-03T19:22:48.269Z,8.77
2023-03-03T19:25:26.977Z,9.25
2023-03-03T19:28:17.349Z,8.93
2023-03-03T19:30:58.864Z,10.00
2023-03-03T19:33:40.837Z,10.45
2023-03-03T19:36:21.745Z,11.48
2023-03-03T19:39:03.670Z,10.75
2023-03-03T19:41:55.948Z,9.85
2023-03-03T19:44:37.721Z,10.40
2023-03-03T19:47:11.363Z,8.00
2023-03-03T19:49:58.143Z,7.75
2023-03-03T19:52:36.689Z,8.15
2023-03-03T19:55:29.170Z,7.80
2023-03-03T19:58:14.204Z,7.32
2023-03-03T20:00:46.222Z,7.55
2023-03-03T20:03:43.964Z,7.53
2023-03-03T20:06:27.831Z,7.40
2023-03-03T20:09:04.762Z,8.10
2023-03-03T20:11:49.582Z,9.60
2023-03-03T20:17:30.760Z,12.73
2023-03-03T20:20:08.444Z,10.83
2023-03-03T20:22:48.065Z,15.93
2023-03-03T20:25:28.367Z,11.37
2023-03-03T20:28:06.578Z,10.27
2023-03-03T20:31:01.596Z,10.57
2023-03-03T20:33:48.271Z,7.90
2023-03-03T20:36:27.682Z,8.67
2023-03-03T20:39:11.479Z,7.10
2023-03-03T20:41:53.668Z,9.80
2023-03-03T20:44:33.918Z,9.13
2023-03-03T20:47:09.722Z,8.50
2023-03-03T20:50:01.851Z,9.70
2023-03-03T20:52:43.075Z,10.17
2023-03-03T20:55:22.086Z,10.33
2023-03-03T20:58:01.244Z,10.90
2023-03-03T21:00:37.196Z,9.20
2023-03-03T21:03:16.217Z,10.43
2023-03-03T21:06:01.206Z,8.47
2023-03-03T21:08:49.579Z,10.17
2023-03-03T21:11:21.475Z,9.77
2023-03-03T21:13:54.195Z,9.17
2023-03-03T21:16:35.818Z,8.83
2023-03-03T21:19:09.112Z,8.33
2023-03-03T21:21:45.206Z,8.40
2023-03-03T21:24:19.926Z,8.57
2023-03-03T21:26:52.763Z,8.63
2023-03-03T21:29:29.200Z,9.47
2023-03-03T21:32:00.787Z,9.90
2023-03-03T21:34:32.657Z,9.17
2023-03-03T21:37:09.799Z,9.63
2023-03-03T21:39:41.177Z,8.63
2023-03-03T21:42:14.456Z,8.97
2023-03-03T21:44:46.803Z,9.53
2023-03-03T21:47:18.710Z,7.80
2023-03-03T21:49:50.145Z,9.20
2023-03-03T21:52:24.935Z,9.67
2023-03-03T21:54:55.478Z,8.77
2023-03-03T21:57:25.903Z,10.27
2023-03-03T21:59:56.150Z,8.63
2023-03-03T22:02:26.354Z,7.83
2023-03-03T22:04:56.585Z,9.17
2023-03-03T22:07:29.064Z,8.23
2023-03-03T22:09:59.250Z,8.50
2023-03-03T22:12:29.546Z,9.27
2023-03-03T22:14:59.749Z,10.63
2023-03-03T22:17:30.352Z,8.10
2023-03-03T22:20:00.654Z,9.33
2023-03-03T22:22:33.456Z,7.97
2023-03-03T22:25:03.708Z,9.10
2023-03-03T22:27:34.718Z,8.67
2023-03-03T22:30:04.990Z,8.70
2023-03-03T22:32:35.256Z,10.53
2023-03-03T22:35:05.480Z,9.23
2023-03-03T22:37:38.294Z,8.23
2023-03-03T22:40:09.106Z,8.77
2023-03-03T22:42:39.392Z,8.80
2023-03-03T22:45:10.228Z,9.63
2023-03-03T22:47:40.659Z,8.60
2023-03-03T22:50:14.212Z,8.37
2023-03-03T22:52:47.023Z,7.20
2023-03-03T22:55:17.225Z,9.03
2023-03-03T22:57:47.424Z,9.97
2023-03-03T23:00:18.687Z,10.50
2023-03-03T23:02:49.019Z,10.80
2023-03-03T23:05:19.281Z,10.10
2023-03-03T23:07:51.944Z,10.37
2023-03-03T23:10:22.282Z,11.10
2023-03-03T23:12:52.477Z,12.70
2023-03-03T23:15:22.854Z,10.90
2023-03-03T23:17:53.019Z,9.33
2023-03-03T23:20:24.253Z,10.23
2023-03-03T23:22:56.998Z,10.00
2023-03-03T23:25:28.671Z,9.57
2023-03-03T23:28:00.467Z,9.90
2023-03-03T23:30:30.754Z,10.27
2023-03-03T23:33:00.972Z,10.90
2023-03-03T23:35:31.329Z,11.57
2023-03-03T23:38:03.884Z,11.00
2023-03-03T23:40:34.150Z,10.73
2023-03-03T23:43:04.294Z,8.60
2023-03-03T23:45:34.457Z,9.57
2023-03-03T23:48:10.025Z,10.20
2023-03-03T23:50:40.598Z,9.60
2023-03-03T23:53:13.398Z,9.47
2023-03-03T23:55:45.601Z,9.43
2023-03-03T23:58:15.781Z,9.30
